sensor_id;sensor_type;location;lat;lon;timestamp;P1;durP1;ratioP1;P2;durP2;ratioP2
66761;SDS011;53672;48.176;16.338;2022-09-01T00:04:28;8.33;;;3.80;;
66761;SDS011;53672;48.176;16.338;2022-09-01T00:09:30;5.87;;;3.80;;
66761;SDS011;53672;48.176;16.338;2022-09-01T00:14:31;8.25;;;3.85;;
66761;SDS011;53672;48.176;16.338;2022-09-01T00:19:34;6.72;;;3.78;;
66761;SDS011;53672;48.176;16.338;2022-09-01T00:24:36;7.05;;;3.65;;
66761;SDS011;53672;48.176;16.338;2022-09-01T00:29:37;7.07;;;3.97;;
66761;SDS011;53672;48.176;16.338;2022-09-01T00:34:37;5.90;;;3.50;;
66761;SDS011;53672;48.176;16.338;2022-09-01T00:39:39;7.23;;;3.87;;
66761;SDS011;53672;48.176;16.338;2022-09-01T00:44:39;6.75;;;3.50;;
66761;SDS011;53672;48.176;16.338;2022-09-01T00:49:40;8.13;;;4.30;;
66761;SDS011;53672;48.176;16.338;2022-09-01T00:54:47;7.15;;;3.92;;
66761;SDS011;53672;48.176;16.338;2022-09-01T00:59:50;7.97;;;3.83;;
66761;SDS011;53672;48.176;16.338;2022-09-01T01:04:55;6.28;;;3.40;;
66761;SDS011;53672;48.176;16.338;2022-09-01T01:09:57;6.47;;;3.80;;
66761;SDS011;53672;48.176;16.338;2022-09-01T01:14:57;6.88;;;3.20;;
66761;SDS011;53672;48.176;16.338;2022-09-01T01:19:58;6.53;;;3.63;;
66761;SDS011;53672;48.176;16.338;2022-09-01T01:25:00;6.13;;;3.50;;
66761;SDS011;53672;48.176;16.338;2022-09-01T01:30:00;6.78;;;3.75;;
66761;SDS011;53672;48.176;16.338;2022-09-01T01:35:04;10.70;;;4.00;;
66761;SDS011;53672;48.176;16.338;2022-09-01T01:40:07;7.20;;;4.30;;
66761;SDS011;53672;48.176;16.338;2022-09-01T01:45:09;8.03;;;4.57;;
66761;SDS011;53672;48.176;16.338;2022-09-01T01:50:09;6.80;;;4.88;;
66761;SDS011;53672;48.176;16.338;2022-09-01T01:55:12;8.20;;;4.20;;
66761;SDS011;53672;48.176;16.338;2022-09-01T02:00:13;6.97;;;4.15;;
66761;SDS011;53672;48.176;16.338;2022-09-01T02:05:13;8.82;;;4.25;;
66761;SDS011;53672;48.176;16.338;2022-09-01T02:10:15;7.60;;;5.00;;
66761;SDS011;53672;48.176;16.338;2022-09-01T02:15:16;9.93;;;5.40;;
66761;SDS011;53672;48.176;16.338;2022-09-01T02:20:17;7.75;;;4.72;;
66761;SDS011;53672;48.176;16.338;2022-09-01T02:25:18;8.73;;;4.72;;
66761;SDS011;53672;48.176;16.338;2022-09-01T02:30:19;8.63;;;5.13;;
66761;SDS011;53672;48.176;16.338;2022-09-01T02:35:20;9.02;;;5.15;;
66761;SDS011;53672;48.176;16.338;2022-09-01T02:40:22;7.80;;;4.67;;
66761;SDS011;53672;48.176;16.338;2022-09-01T02:45:22;9.33;;;5.13;;
66761;SDS011;53672;48.176;16.338;2022-09-01T02:50:23;7.10;;;4.50;;
66761;SDS011;53672;48.176;16.338;2022-09-01T02:55:25;8.73;;;4.77;;
66761;SDS011;53672;48.176;16.338;2022-09-01T03:00:26;8.18;;;4.50;;
66761;SDS011;53672;48.176;16.338;2022-09-01T03:05:27;7.53;;;4.50;;
66761;SDS011;53672;48.176;16.338;2022-09-01T03:10:32;8.80;;;5.40;;
66761;SDS011;53672;48.176;16.338;2022-09-01T03:15:33;9.00;;;5.00;;
66761;SDS011;53672;48.176;16.338;2022-09-01T03:20:35;7.85;;;5.10;;
66761;SDS011;53672;48.176;16.338;2022-09-01T03:25:39;8.90;;;5.10;;
66761;SDS011;53672;48.176;16.338;2022-09-01T03:30:43;9.77;;;5.23;;
66761;SDS011;53672;48.176;16.338;2022-09-01T03:35:45;7.05;;;4.63;;
66761;SDS011;53672;48.176;16.338;2022-09-01T03:40:48;7.78;;;4.75;;
66761;SDS011;53672;48.176;16.338;2022-09-01T03:45:50;9.63;;;5.15;;
66761;SDS011;53672;48.176;16.338;2022-09-01T03:50:50;6.47;;;4.23;;
66761;SDS011;53672;48.176;16.338;2022-09-01T03:55:52;8.10;;;4.67;;
66761;SDS011;53672;48.176;16.338;2022-09-01T04:00:54;8.32;;;4.82;;
66761;SDS011;53672;48.176;16.338;2022-09-01T04:05:56;7.28;;;4.65;;
66761;SDS011;53672;48.176;16.338;2022-09-01T04:11:00;8.20;;;4.20;;
66761;SDS011;53672;48.176;16.338;2022-09-01T04:16:03;7.93;;;4.40;;
66761;SDS011;53672;48.176;16.338;2022-09-01T04:21:05;9.13;;;4.50;;
66761;SDS011;53672;48.176;16.338;2022-09-01T04:26:08;6.43;;;4.30;;
66761;SDS011;53672;48.176;16.338;2022-09-01T04:31:10;7.28;;;4.20;;
66761;SDS011;53672;48.176;16.338;2022-09-01T04:36:13;7.80;;;4.40;;
66761;SDS011;53672;48.176;16.338;2022-09-01T04:41:16;6.67;;;4.00;;
66761;SDS011;53672;48.176;16.338;2022-09-01T04:46:16;8.55;;;4.43;;
66761;SDS011;53672;48.176;16.338;2022-09-01T04:51:17;7.97;;;4.50;;
66761;SDS011;53672;48.176;16.338;2022-09-01T04:56:19;8.05;;;4.07;;
66761;SDS011;53672;48.176;16.338;2022-09-01T05:01:21;9.23;;;3.80;;
66761;SDS011;53672;48.176;16.338;2022-09-01T05:06:23;6.82;;;3.33;;
66761;SDS011;53672;48.176;16.338;2022-09-01T05:11:25;9.13;;;3.17;;
66761;SDS011;53672;48.176;16.338;2022-09-01T05:16:26;5.97;;;3.27;;
66761;SDS011;53672;48.176;16.338;2022-09-01T05:21:26;5.30;;;2.53;;
66761;SDS011;53672;48.176;16.338;2022-09-01T05:26:30;5.63;;;2.60;;
66761;SDS011;53672;48.176;16.338;2022-09-01T05:31:32;6.82;;;3.17;;
66761;SDS011;53672;48.176;16.338;2022-09-01T05:36:33;5.27;;;2.50;;
66761;SDS011;53672;48.176;16.338;2022-09-01T05:41:34;6.27;;;2.73;;
66761;SDS011;53672;48.176;16.338;2022-09-01T05:46:36;6.13;;;2.50;;
66761;SDS011;53672;48.176;16.338;2022-09-01T05:51:38;6.10;;;2.70;;
66761;SDS011;53672;48.176;16.338;2022-09-01T05:56:42;6.20;;;2.55;;
66761;SDS011;53672;48.176;16.338;2022-09-01T06:01:42;6.35;;;2.60;;
66761;SDS011;53672;48.176;16.338;2022-09-01T06:06:43;6.67;;;2.80;;
66761;SDS011;53672;48.176;16.338;2022-09-01T06:11:47;5.40;;;2.10;;
66761;SDS011;53672;48.176;16.338;2022-09-01T06:16:48;7.00;;;2.20;;
66761;SDS011;53672;48.176;16.338;2022-09-01T06:21:49;4.70;;;2.30;;
66761;SDS011;53672;48.176;16.338;2022-09-01T06:26:51;6.83;;;2.33;;
66761;SDS011;53672;48.176;16.338;2022-09-01T06:31:51;4.35;;;2.13;;
66761;SDS011;53672;48.176;16.338;2022-09-01T06:36:51;6.33;;;2.27;;
66761;SDS011;53672;48.176;16.338;2022-09-01T06:41:53;5.83;;;2.17;;
66761;SDS011;53672;48.176;16.338;2022-09-01T06:46:54;5.80;;;2.40;;
66761;SDS011;53672;48.176;16.338;2022-09-01T06:51:54;3.90;;;1.97;;
66761;SDS011;53672;48.176;16.338;2022-09-01T06:56:56;6.27;;;2.00;;
66761;SDS011;53672;48.176;16.338;2022-09-01T07:01:57;5.00;;;2.03;;
66761;SDS011;53672;48.176;16.338;2022-09-01T07:06:57;4.93;;;2.00;;
66761;SDS011;53672;48.176;16.338;2022-09-01T07:11:59;5.90;;;2.27;;
66761;SDS011;53672;48.176;16.338;2022-09-01T07:17:00;4.28;;;1.70;;
66761;SDS011;53672;48.176;16.338;2022-09-01T07:22:00;4.53;;;1.80;;
66761;SDS011;53672;48.176;16.338;2022-09-01T07:27:02;5.23;;;2.10;;
66761;SDS011;53672;48.176;16.338;2022-09-01T07:32:03;4.73;;;1.80;;
66761;SDS011;53672;48.176;16.338;2022-09-01T07:37:04;6.65;;;2.00;;
66761;SDS011;53672;48.176;16.338;2022-09-01T07:42:06;7.20;;;2.40;;
66761;SDS011;53672;48.176;16.338;2022-09-01T07:47:06;5.20;;;1.77;;
66761;SDS011;53672;48.176;16.338;2022-09-01T07:52:07;4.27;;;1.60;;
66761;SDS011;53672;48.176;16.338;2022-09-01T07:57:08;5.07;;;1.70;;
66761;SDS011;53672;48.176;16.338;2022-09-01T08:02:09;5.00;;;1.83;;
66761;SDS011;53672;48.176;16.338;2022-09-01T08:07:09;4.20;;;1.60;;
66761;SDS011;53672;48.176;16.338;2022-09-01T08:12:11;7.20;;;1.97;;
66761;SDS011;53672;48.176;16.338;2022-09-01T08:17:13;4.50;;;1.63;;
66761;SDS011;53672;48.176;16.338;2022-09-01T08:22:14;3.88;;;1.70;;
66761;SDS011;53672;48.176;16.338;2022-09-01T08:27:16;4.88;;;1.63;;
66761;SDS011;53672;48.176;16.338;2022-09-01T08:32:17;4.33;;;1.90;;
66761;SDS011;53672;48.176;16.338;2022-09-01T08:37:18;5.13;;;1.40;;
66761;SDS011;53672;48.176;16.338;2022-09-01T08:42:21;5.57;;;1.50;;
66761;SDS011;53672;48.176;16.338;2022-09-01T08:47:35;5.70;;;1.60;;
66761;SDS011;53672;48.176;16.338;2022-09-01T08:52:36;4.23;;;1.53;;
66761;SDS011;53672;48.176;16.338;2022-09-01T08:57:43;4.32;;;1.50;;
66761;SDS011;53672;48.176;16.338;2022-09-01T09:02:49;3.50;;;1.53;;
66761;SDS011;53672;48.176;16.338;2022-09-01T09:08:00;3.85;;;1.40;;
66761;SDS011;53672;48.176;16.338;2022-09-01T09:13:13;4.10;;;1.40;;
66761;SDS011;53672;48.176;16.338;2022-09-01T09:18:23;4.20;;;1.50;;
66761;SDS011;53672;48.176;16.338;2022-09-01T09:23:34;4.80;;;1.40;;
66761;SDS011;53672;48.176;16.338;2022-09-01T09:28:41;3.63;;;1.33;;
66761;SDS011;53672;48.176;16.338;2022-09-01T09:33:41;3.22;;;1.38;;
66761;SDS011;53672;48.176;16.338;2022-09-01T09:38:41;4.30;;;1.70;;
66761;SDS011;53672;48.176;16.338;2022-09-01T09:43:44;4.57;;;1.60;;
66761;SDS011;53672;48.176;16.338;2022-09-01T09:48:47;3.90;;;1.40;;
66761;SDS011;53672;48.176;16.338;2022-09-01T09:53:48;2.97;;;1.50;;
66761;SDS011;53672;48.176;16.338;2022-09-01T09:58:50;6.53;;;1.60;;
66761;SDS011;53672;48.176;16.338;2022-09-01T10:03:53;3.88;;;1.42;;
66761;SDS011;53672;48.176;16.338;2022-09-01T10:08:55;3.50;;;1.50;;
66761;SDS011;53672;48.176;16.338;2022-09-01T10:13:57;4.00;;;1.47;;
66761;SDS011;53672;48.176;16.338;2022-09-01T10:18:58;4.15;;;2.13;;
66761;SDS011;53672;48.176;16.338;2022-09-01T10:24:01;4.40;;;1.80;;
66761;SDS011;53672;48.176;16.338;2022-09-01T10:29:08;4.60;;;1.70;;
66761;SDS011;53672;48.176;16.338;2022-09-01T10:34:14;4.38;;;1.75;;
66761;SDS011;53672;48.176;16.338;2022-09-01T10:39:17;4.07;;;1.90;;
66761;SDS011;53672;48.176;16.338;2022-09-01T10:44:21;5.22;;;1.40;;
66761;SDS011;53672;48.176;16.338;2022-09-01T10:54:58;3.53;;;1.65;;
66761;SDS011;53672;48.176;16.338;2022-09-01T11:06:00;5.57;;;1.70;;
66761;SDS011;53672;48.176;16.338;2022-09-01T11:11:04;3.95;;;1.52;;
66761;SDS011;53672;48.176;16.338;2022-09-01T11:16:25;3.90;;;1.90;;
66761;SDS011;53672;48.176;16.338;2022-09-01T11:21:32;5.05;;;1.73;;
66761;SDS011;53672;48.176;16.338;2022-09-01T11:26:46;3.75;;;1.50;;
66761;SDS011;53672;48.176;16.338;2022-09-01T11:31:47;4.28;;;1.40;;
66761;SDS011;53672;48.176;16.338;2022-09-01T11:36:52;4.07;;;1.42;;
66761;SDS011;53672;48.176;16.338;2022-09-01T11:41:55;4.13;;;1.50;;
66761;SDS011;53672;48.176;16.338;2022-09-01T11:47:01;4.60;;;1.30;;
66761;SDS011;53672;48.176;16.338;2022-09-01T11:52:05;5.38;;;1.48;;
66761;SDS011;53672;48.176;16.338;2022-09-01T11:57:18;3.72;;;1.60;;
66761;SDS011;53672;48.176;16.338;2022-09-01T12:02:22;8.27;;;2.20;;
66761;SDS011;53672;48.176;16.338;2022-09-01T12:07:26;3.83;;;1.30;;
66761;SDS011;53672;48.176;16.338;2022-09-01T12:12:34;5.00;;;1.40;;
66761;SDS011;53672;48.176;16.338;2022-09-01T12:17:36;4.40;;;1.60;;
66761;SDS011;53672;48.176;16.338;2022-09-01T12:22:38;4.15;;;1.30;;
66761;SDS011;53672;48.176;16.338;2022-09-01T12:27:41;4.17;;;1.30;;
66761;SDS011;53672;48.176;16.338;2022-09-01T12:32:42;3.77;;;1.57;;
66761;SDS011;53672;48.176;16.338;2022-09-01T12:37:44;3.70;;;1.60;;
66761;SDS011;53672;48.176;16.338;2022-09-01T12:42:47;3.78;;;1.58;;
66761;SDS011;53672;48.176;16.338;2022-09-01T12:47:49;4.85;;;1.50;;
66761;SDS011;53672;48.176;16.338;2022-09-01T12:52:52;4.82;;;1.40;;
66761;SDS011;53672;48.176;16.338;2022-09-01T12:57:54;3.57;;;1.50;;
66761;SDS011;53672;48.176;16.338;2022-09-01T13:03:04;3.85;;;1.70;;
66761;SDS011;53672;48.176;16.338;2022-09-01T13:08:09;4.10;;;1.53;;
66761;SDS011;53672;48.176;16.338;2022-09-01T13:13:10;3.85;;;1.38;;
66761;SDS011;53672;48.176;16.338;2022-09-01T13:18:12;4.38;;;1.60;;
66761;SDS011;53672;48.176;16.338;2022-09-01T13:23:14;3.60;;;1.50;;
66761;SDS011;53672;48.176;16.338;2022-09-01T13:28:16;3.40;;;1.50;;
66761;SDS011;53672;48.176;16.338;2022-09-01T13:33:17;3.65;;;1.40;;
66761;SDS011;53672;48.176;16.338;2022-09-01T13:38:19;5.03;;;1.50;;
66761;SDS011;53672;48.176;16.338;2022-09-01T13:43:20;3.60;;;1.77;;
66761;SDS011;53672;48.176;16.338;2022-09-01T13:48:22;3.70;;;1.33;;
66761;SDS011;53672;48.176;16.338;2022-09-01T13:53:23;4.87;;;1.40;;
66761;SDS011;53672;48.176;16.338;2022-09-01T13:58:24;4.22;;;1.40;;
66761;SDS011;53672;48.176;16.338;2022-09-01T14:03:24;2.90;;;1.03;;
66761;SDS011;53672;48.176;16.338;2022-09-01T14:08:27;3.23;;;1.27;;
66761;SDS011;53672;48.176;16.338;2022-09-01T14:13:27;4.05;;;1.48;;
66761;SDS011;53672;48.176;16.338;2022-09-01T14:18:28;3.50;;;1.23;;
66761;SDS011;53672;48.176;16.338;2022-09-01T14:23:30;2.90;;;1.20;;
66761;SDS011;53672;48.176;16.338;2022-09-01T14:28:30;4.85;;;1.40;;
66761;SDS011;53672;48.176;16.338;2022-09-01T14:33:31;3.30;;;1.50;;
66761;SDS011;53672;48.176;16.338;2022-09-01T14:38:33;4.67;;;1.20;;
66761;SDS011;53672;48.176;16.338;2022-09-01T14:43:33;3.33;;;1.30;;
66761;SDS011;53672;48.176;16.338;2022-09-01T14:48:34;3.40;;;1.27;;
66761;SDS011;53672;48.176;16.338;2022-09-01T14:53:36;3.17;;;1.20;;
66761;SDS011;53672;48.176;16.338;2022-09-01T14:58:37;3.55;;;1.00;;
66761;SDS011;53672;48.176;16.338;2022-09-01T15:03:37;4.30;;;1.03;;
66761;SDS011;53672;48.176;16.338;2022-09-01T15:08:39;3.97;;;1.00;;
66761;SDS011;53672;48.176;16.338;2022-09-01T15:13:41;2.95;;;1.10;;
66761;SDS011;53672;48.176;16.338;2022-09-01T15:18:42;3.13;;;1.00;;
66761;SDS011;53672;48.176;16.338;2022-09-01T15:23:44;3.13;;;1.23;;
66761;SDS011;53672;48.176;16.338;2022-09-01T15:28:44;3.65;;;1.00;;
66761;SDS011;53672;48.176;16.338;2022-09-01T15:33:45;4.03;;;1.20;;
66761;SDS011;53672;48.176;16.338;2022-09-01T15:38:47;2.92;;;1.15;;
66761;SDS011;53672;48.176;16.338;2022-09-01T15:43:49;4.13;;;1.30;;
66761;SDS011;53672;48.176;16.338;2022-09-01T15:48:50;3.58;;;1.30;;
66761;SDS011;53672;48.176;16.338;2022-09-01T15:53:53;3.13;;;1.27;;
66761;SDS011;53672;48.176;16.338;2022-09-01T15:58:55;3.40;;;1.40;;
66761;SDS011;53672;48.176;16.338;2022-09-01T16:03:55;3.30;;;1.30;;
66761;SDS011;53672;48.176;16.338;2022-09-01T16:08:57;3.73;;;1.37;;
66761;SDS011;53672;48.176;16.338;2022-09-01T16:13:58;3.70;;;1.20;;
66761;SDS011;53672;48.176;16.338;2022-09-01T16:18:59;3.53;;;1.40;;
66761;SDS011;53672;48.176;16.338;2022-09-01T16:24:06;3.30;;;1.45;;
66761;SDS011;53672;48.176;16.338;2022-09-01T16:29:11;3.53;;;1.20;;
66761;SDS011;53672;48.176;16.338;2022-09-01T16:34:17;4.63;;;1.50;;
66761;SDS011;53672;48.176;16.338;2022-09-01T16:39:20;2.93;;;1.17;;
66761;SDS011;53672;48.176;16.338;2022-09-01T16:44:35;4.53;;;1.30;;
66761;SDS011;53672;48.176;16.338;2022-09-01T16:49:43;3.57;;;1.10;;
66761;SDS011;53672;48.176;16.338;2022-09-01T16:54:55;3.28;;;1.30;;
66761;SDS011;53672;48.176;16.338;2022-09-01T17:00:10;3.87;;;1.50;;
66761;SDS011;53672;48.176;16.338;2022-09-01T17:05:16;4.10;;;1.40;;
66761;SDS011;53672;48.176;16.338;2022-09-01T17:10:32;3.92;;;1.60;;
66761;SDS011;53672;48.176;16.338;2022-09-01T17:15:39;3.90;;;1.40;;
66761;SDS011;53672;48.176;16.338;2022-09-01T17:20:42;3.67;;;1.60;;
66761;SDS011;53672;48.176;16.338;2022-09-01T17:25:50;3.43;;;1.50;;
66761;SDS011;53672;48.176;16.338;2022-09-01T17:30:56;5.07;;;1.50;;
66761;SDS011;53672;48.176;16.338;2022-09-01T17:36:04;3.40;;;1.30;;
66761;SDS011;53672;48.176;16.338;2022-09-01T17:41:17;4.47;;;1.40;;
66761;SDS011;53672;48.176;16.338;2022-09-01T17:46:28;5.03;;;1.75;;
66761;SDS011;53672;48.176;16.338;2022-09-01T17:51:33;3.90;;;1.63;;
66761;SDS011;53672;48.176;16.338;2022-09-01T17:56:43;4.35;;;1.55;;
66761;SDS011;53672;48.176;16.338;2022-09-01T18:01:54;4.13;;;1.50;;
66761;SDS011;53672;48.176;16.338;2022-09-01T18:07:06;4.30;;;1.50;;
66761;SDS011;53672;48.176;16.338;2022-09-01T18:12:19;4.38;;;2.05;;
66761;SDS011;53672;48.176;16.338;2022-09-01T18:17:27;4.33;;;1.80;;
66761;SDS011;53672;48.176;16.338;2022-09-01T18:22:29;5.47;;;1.77;;
66761;SDS011;53672;48.176;16.338;2022-09-01T18:27:37;4.25;;;1.90;;
66761;SDS011;53672;48.176;16.338;2022-09-01T18:32:40;3.90;;;1.70;;
66761;SDS011;53672;48.176;16.338;2022-09-01T18:37:45;4.47;;;1.88;;
66761;SDS011;53672;48.176;16.338;2022-09-01T18:42:56;4.10;;;1.77;;
66761;SDS011;53672;48.176;16.338;2022-09-01T18:48:05;5.45;;;1.80;;
66761;SDS011;53672;48.176;16.338;2022-09-01T18:53:17;4.90;;;1.95;;
66761;SDS011;53672;48.176;16.338;2022-09-01T18:58:34;5.50;;;2.00;;
66761;SDS011;53672;48.176;16.338;2022-09-01T19:03:46;5.00;;;1.60;;
66761;SDS011;53672;48.176;16.338;2022-09-01T19:08:55;4.10;;;1.63;;
66761;SDS011;53672;48.176;16.338;2022-09-01T19:14:08;5.97;;;1.73;;
66761;SDS011;53672;48.176;16.338;2022-09-01T19:19:19;3.97;;;1.70;;
66761;SDS011;53672;48.176;16.338;2022-09-01T19:24:32;4.57;;;1.60;;
66761;SDS011;53672;48.176;16.338;2022-09-01T19:29:43;5.53;;;2.10;;
66761;SDS011;53672;48.176;16.338;2022-09-01T19:34:48;6.40;;;2.90;;
66761;SDS011;53672;48.176;16.338;2022-09-01T19:39:52;4.68;;;1.63;;
66761;SDS011;53672;48.176;16.338;2022-09-01T19:44:55;4.97;;;1.50;;
66761;SDS011;53672;48.176;16.338;2022-09-01T19:50:04;4.57;;;1.80;;
66761;SDS011;53672;48.176;16.338;2022-09-01T19:55:13;5.00;;;1.60;;
66761;SDS011;53672;48.176;16.338;2022-09-01T20:00:19;3.65;;;1.38;;
66761;SDS011;53672;48.176;16.338;2022-09-01T20:05:24;4.43;;;1.60;;
66761;SDS011;53672;48.176;16.338;2022-09-01T20:10:37;3.25;;;1.20;;
66761;SDS011;53672;48.176;16.338;2022-09-01T20:15:49;3.47;;;1.50;;
66761;SDS011;53672;48.176;16.338;2022-09-01T20:20:53;4.10;;;1.60;;
66761;SDS011;53672;48.176;16.338;2022-09-01T20:25:58;6.22;;;1.77;;
66761;SDS011;53672;48.176;16.338;2022-09-01T20:31:04;5.15;;;1.60;;
66761;SDS011;53672;48.176;16.338;2022-09-01T20:36:10;3.67;;;1.50;;
66761;SDS011;53672;48.176;16.338;2022-09-01T20:41:15;4.03;;;1.50;;
66761;SDS011;53672;48.176;16.338;2022-09-01T20:46:23;4.17;;;1.47;;
66761;SDS011;53672;48.176;16.338;2022-09-01T20:51:24;5.28;;;1.50;;
66761;SDS011;53672;48.176;16.338;2022-09-01T20:56:36;4.85;;;1.40;;
66761;SDS011;53672;48.176;16.338;2022-09-01T21:01:46;3.95;;;1.35;;
66761;SDS011;53672;48.176;16.338;2022-09-01T21:06:52;3.67;;;1.40;;
66761;SDS011;53672;48.176;16.338;2022-09-01T21:11:59;3.83;;;1.50;;
66761;SDS011;53672;48.176;16.338;2022-09-01T21:17:09;3.90;;;1.52;;
66761;SDS011;53672;48.176;16.338;2022-09-01T21:22:17;4.78;;;1.48;;
66761;SDS011;53672;48.176;16.338;2022-09-01T21:27:18;7.03;;;1.42;;
66761;SDS011;53672;48.176;16.338;2022-09-01T21:32:23;3.27;;;1.10;;
66761;SDS011;53672;48.176;16.338;2022-09-01T21:37:25;3.65;;;1.20;;
66761;SDS011;53672;48.176;16.338;2022-09-01T21:42:29;3.20;;;1.20;;
66761;SDS011;53672;48.176;16.338;2022-09-01T21:47:34;3.60;;;1.20;;
66761;SDS011;53672;48.176;16.338;2022-09-01T21:52:34;3.63;;;1.13;;
66761;SDS011;53672;48.176;16.338;2022-09-01T21:57:35;4.13;;;1.20;;
66761;SDS011;53672;48.176;16.338;2022-09-01T22:02:37;13.85;;;2.10;;
66761;SDS011;53672;48.176;16.338;2022-09-01T22:07:38;3.13;;;1.10;;
66761;SDS011;53672;48.176;16.338;2022-09-01T22:12:41;4.25;;;1.30;;
66761;SDS011;53672;48.176;16.338;2022-09-01T22:17:45;4.47;;;1.27;;
66761;SDS011;53672;48.176;16.338;2022-09-01T22:22:46;3.72;;;1.10;;
66761;SDS011;53672;48.176;16.338;2022-09-01T22:27:46;3.30;;;1.03;;
66761;SDS011;53672;48.176;16.338;2022-09-01T22:32:48;4.77;;;1.27;;
66761;SDS011;53672;48.176;16.338;2022-09-01T22:37:49;4.28;;;1.42;;
66761;SDS011;53672;48.176;16.338;2022-09-01T22:42:49;5.13;;;1.50;;
66761;SDS011;53672;48.176;16.338;2022-09-01T22:47:51;3.80;;;1.63;;
66761;SDS011;53672;48.176;16.338;2022-09-01T22:52:51;4.25;;;1.50;;
66761;SDS011;53672;48.176;16.338;2022-09-01T22:57:52;4.50;;;1.50;;
66761;SDS011;53672;48.176;16.338;2022-09-01T23:02:53;5.23;;;1.83;;
66761;SDS011;53672;48.176;16.338;2022-09-01T23:07:54;3.60;;;1.40;;
66761;SDS011;53672;48.176;16.338;2022-09-01T23:12:55;4.18;;;1.50;;
66761;SDS011;53672;48.176;16.338;2022-09-01T23:17:57;3.47;;;1.50;;
66761;SDS011;53672;48.176;16.338;2022-09-01T23:22:57;4.80;;;1.70;;
66761;SDS011;53672;48.176;16.338;2022-09-01T23:27:57;5.22;;;1.70;;
66761;SDS011;53672;48.176;16.338;2022-09-01T23:32:59;5.05;;;1.83;;
66761;SDS011;53672;48.176;16.338;2022-09-01T23:38:00;5.30;;;1.80;;
66761;SDS011;53672;48.176;16.338;2022-09-01T23:43:00;3.37;;;1.20;;
66761;SDS011;53672;48.176;16.338;2022-09-01T23:48:02;4.00;;;1.40;;
66761;SDS011;53672;48.176;16.338;2022-09-01T23:53:03;3.72;;;1.58;;
66761;SDS011;53672;48.176;16.338;2022-09-01T23:58:03;6.40;;;1.60;;
